Zahedan, Zahedan Airport (OIZH)

NameZahedan Airport
CityZahedan
CountryIran (Islamic Republic of)
ICAOOIZH
IATAZAH
Altitude1391 m
CoordinatesGoogle Map
Live Air TrafficLiveATC.net
METAROIZH 251730Z 14004KT 9999 FEW040 24/02 Q1016 A3001
2020-04-25 17:30:00 Wind: Southeast (140°) 2.06 m/s - Visibility: > 10000 m - Temperature: 24 °C - Dew point: 2 °C - Humidity: 23.7% - Pressure: 1016.26 hPa
Statistics

The table below shows the detailed information of all flights to/from Zahedan, Zahedan Airport (OIZH).